Latest Coastal Weather Observations for Truscott

IDD60701

Issued at 10:31 pm CST Tuesday 17 October 2017 (issued every 10 minutes, with the page automatically refreshed every 10 minutes)

About coastal observations | Map of coastal stations | Coastal observations for NT | Marine services | Other Formats
Station Details ID: 001020 Name: TRUSCOTT Lat: -14.09 Lon: 126.39 Height: 51.0 m
Data from the previous 72 hours. | See also: Recent months at Truscott
Date/Time
CST
Temp
°C
Wind Pressure Rain since
9am
mm
Weather Cloud Vis
km
Sea
Height
m
Swell
Dir  Spd
kts
Gust
kts
hPa Trend Height
m
Period
s
Dir
17/10:30pm 28.8 W 6 8 1007.2 - 0.2 - Partly cloudy 10 - - - -
17/10:00pm 28.8 W 8 12 1007.1 - 0.2 - - 10 - - - -
17/09:30pm 28.9 W 8 13 1006.6 - 0.2 - - 10 - - - -
17/09:00pm 29.0 W 10 14 1006.3 - 0.2 - - 10 - - - -
17/08:30pm 29.1 WSW 7 11 1006.2 - 0.2 - Partly cloudy 10 - - - -
17/08:00pm 28.7 W 7 10 1005.8 - 0.2 - Partly cloudy 10 - - - -
17/07:30pm 28.4 W 6 8 1005.3 - 0.2 - Cloudy 10 - - - -
17/07:00pm 28.1 WNW 4 6 1004.6 - 0.2 - Partly cloudy 10 - - - -
17/06:30pm 27.0 NW 6 9 1004.8 - 0.2 - - 10 - - - -
17/06:00pm 25.5 ESE 5 12 1004.8 - 0.2 - Partly cloudy 10 - - - -
17/05:30pm 28.5 SE 12 23 1006.1 - 0.0 - Partly cloudy 10 - - - -
17/05:18pm 31.4 S 7 12 1005.9 - 0.0 - Partly cloudy 10 - - - -
17/05:00pm 32.7 W 10 17 1003.9 - 0.0 - Partly cloudy 10 - - - -
17/04:30pm 33.1 W 12 17 1003.0 - 0.0 - - 10 - - - -
17/04:00pm 33.4 WNW 12 19 1003.2 - 0.0 - - 10 - - - -
17/03:30pm 33.8 WNW 10 16 1003.4 - 0.0 - - 10 - - - -
17/03:00pm 33.9 WNW 10 16 1003.4 - 0.0 - - 10 - - - -
17/02:30pm 33.9 WNW 11 16 1003.7 - 0.0 - - 10 - - - -
17/02:00pm 33.3 W 12 17 1004.6 - 0.0 - - 10 - - - -
17/01:30pm 33.6 W 12 17 1005.3 - 0.0 - - 10 - - - -
17/01:00pm 33.1 WNW 11 16 1005.9 - 0.0 - - 10 - - - -
17/12:30pm 32.7 WNW 11 14 1006.4 - 0.0 - - 10 - - - -
17/12:00pm 33.6 WNW 10 13 1006.7 - 0.0 - - 10 - - - -
17/11:30am 32.6 WNW 9 12 1007.0 - 0.0 - - 10 - - - -
17/11:00am 32.3 W 9 13 1007.4 - 0.0 - - 10 - - - -
17/10:30am 31.7 WNW 10 13 1007.5 - 0.0 - - 10 - - - -
17/10:00am 31.6 W 9 14 1007.6 - 0.0 - - 10 - - - -
17/09:30am 31.1 W 9 13 1007.6 - 0.0 - - 10 - - - -
17/09:00am 30.5 W 10 16 1007.3 - 0.0 - - 10 - - - -
17/08:30am 29.7 WSW 10 15 1007.0 - 0.0 - - 10 - - - -
17/08:00am 29.2 W 11 15 1006.8 - 0.0 - - 10 - - - -
17/07:30am 28.8 W 9 13 1006.5 - 0.0 - Mostly clear 10 - - - -
17/07:00am 28.3 WSW 9 15 1006.3 - 0.0 - - 10 - - - -
17/06:30am 28.3 WSW 8 11 1006.2 - 0.0 - - 10 - - - -
17/06:00am 28.4 WSW 8 12 1006.1 - 0.0 - Partly cloudy 10 - - - -
17/05:30am 28.4 W 8 12 1005.9 - 0.0 - Partly cloudy 10 - - - -
17/05:00am 28.3 W 7 10 1005.7 - 0.0 - Partly cloudy 10 - - - -
17/04:49am 28.3 WNW 6 9 1005.5 - 0.0 - Partly cloudy 10 - - - -
17/04:30am 28.2 WNW 7 11 1005.3 - 0.0 - Cloudy 10 - - - -
17/04:00am 28.1 WNW 7 10 1005.2 - 0.0 - Partly cloudy 10 - - - -
17/03:30am 28.1 WNW 8 13 1005.3 - 0.0 - Partly cloudy 10 - - - -
17/03:00am 28.1 WNW 8 13 1005.4 - 0.0 - - 10 - - - -
17/02:30am 28.1 W 10 15 1005.5 - 0.0 - - 10 - - - -
17/02:00am 28.2 W 8 11 1005.7 - 0.0 - - 10 - - - -
17/01:30am 28.4 W 8 11 1006.0 - 0.0 - - 10 - - - -
17/01:00am 28.5 W 7 9 1006.3 - 0.0 - - 10 - - - -
17/12:30am 28.6 WNW 6 9 1006.4 - 0.0 - - 10 - - - -
17/12:00am 28.8 WNW 7 11 1006.6 - 0.0 - - 10 - - - -
 
Date/Time
CST
Temp
°C
Wind Pressure Rain since
9am
mm
Weather Cloud Vis
km
Sea
Height
m
Swell
Dir  Spd
kts
Gust
kts
hPa Trend Height
m
Period
s
Dir
16/11:30pm 28.9 WNW 6 10 1006.8 - 0.0 - - 10 - - - -
16/11:00pm 29.2 W 7 10 1006.9 - 0.0 - - 10 - - - -
16/10:30pm 29.3 WNW 7 12 1006.9 - 0.0 - - 10 - - - -
16/10:00pm 29.4 WNW 7 9 1006.9 - 0.0 - - 10 - - - -
16/09:30pm 29.6 WNW 7 11 1006.5 - 0.0 - - 10 - - - -
16/09:00pm 29.7 WNW 6 8 1006.2 - 0.0 - - 10 - - - -
16/08:30pm 29.7 WNW 7 11 1005.5 - 0.0 - - 10 - - - -
16/08:00pm 30.0 WNW 8 12 1005.0 - 0.0 - - 10 - - - -
16/07:30pm 30.3 W 9 13 1004.6 - 0.0 - - 10 - - - -
16/07:00pm 30.3 WNW 8 12 1004.3 - 0.0 - - 10 - - - -
16/06:30pm 30.8 WNW 9 13 1003.9 - 0.0 - - 10 - - - -
16/06:00pm 31.8 WNW 10 14 1003.5 - 0.0 - - 10 - - - -
16/05:30pm 32.5 NW 11 16 1003.4 - 0.0 - - 10 - - - -
16/05:00pm 33.4 WNW 9 14 1003.3 - 0.0 - - 10 - - - -
16/04:30pm 35.4 WNW 9 15 1003.5 - 0.0 - - 10 - - - -
16/04:00pm 35.2 W 10 14 1003.6 - 0.0 - - 10 - - - -
16/03:30pm 34.8 WNW 10 14 1003.8 - 0.0 - - 10 - - - -
16/03:00pm 34.7 WNW 9 14 1004.0 - 0.0 - - 10 - - - -
16/02:30pm 34.7 WNW 11 16 1004.4 - 0.0 - - 10 - - - -
16/02:00pm 34.6 WNW 11 15 1005.0 - 0.0 - - 10 - - - -
16/01:30pm 34.7 WNW 10 14 1005.6 - 0.0 - - 10 - - - -
16/01:00pm 33.8 WNW 9 13 1006.3 - 0.0 - - 10 - - - -
16/12:30pm 33.7 WNW 8 11 1006.8 - 0.0 - - 10 - - - -
16/12:00pm 33.3 WNW 9 14 1007.3 - 0.0 - - 10 - - - -
16/11:30am 31.9 WNW 9 13 1007.7 - 0.0 - - 10 - - - -
16/11:00am 32.3 WNW 9 12 1008.1 - 0.0 - - 10 - - - -
16/10:30am 31.7 WSW 9 13 1008.3 - 0.0 - - 10 - - - -
16/10:00am 31.4 W 8 12 1008.4 - 0.0 - - 10 - - - -
16/09:30am 30.7 WSW 9 13 1008.5 - 0.0 - - 10 - - - -
16/09:00am 30.2 SW 6 11 1008.5 - 0.0 - - 10 - - - -
16/08:30am 28.1 SW 7 9 1008.4 - 0.0 - - 10 - - - -
16/08:00am 28.1 WSW 5 7 1008.3 - 0.0 - - 10 - - - -
16/07:30am 28.0 SW 6 9 1008.1 - 0.0 - Cloudy 10 - - - -
16/07:00am 27.8 WSW 6 9 1007.7 - 0.0 - - 10 - - - -
16/06:30am 27.8 SW 4 6 1007.7 - 0.0 - - 10 - - - -
16/06:00am 27.8 WNW 5 7 1007.3 - 0.0 - - 10 - - - -
16/05:30am 27.3 W 4 6 1007.1 - 0.0 - - 10 - - - -
16/05:00am 27.2 WNW 4 6 1006.8 - 0.0 - - 10 - - - -
16/04:30am 27.1 W 3 4 1006.9 - 0.0 - Cloudy 10 - - - -
16/04:00am 26.9 CALM 0 0 1006.8 - 0.0 - - 10 - - - -
16/03:30am 26.7 N 3 5 1006.6 - 0.0 - - 10 - - - -
16/03:00am 26.6 NNW 3 5 1006.6 - 0.0 - Partly cloudy 10 - - - -
16/02:30am 26.7 NW 4 5 1006.9 - 0.0 - - 10 - - - -
16/02:00am 27.2 SSW 2 5 1007.3 - 0.0 - - 10 - - - -
16/01:30am 26.6 NNE 5 6 1007.8 - 0.0 - Cloudy 10 - - - -
16/01:00am 26.6 N 3 4 1008.0 - 0.0 - - 10 - - - -
16/12:30am 26.8 ENE 3 4 1008.0 - 0.0 - - 10 - - - -
16/12:00am 26.9 SE 5 8 1008.3 - 0.0 - - 10 - - - -
 
Date/Time
CST
Temp
°C
Wind Pressure Rain since
9am
mm
Weather Cloud Vis
km
Sea
Height
m
Swell
Dir  Spd
kts
Gust
kts
hPa Trend Height
m
Period
s
Dir
15/11:30pm 27.2 ENE 7 13 1007.9 - 0.0 - - 10 - - - -
15/11:00pm 28.2 SW 6 9 1008.1 - 0.0 - - 10 - - - -
15/10:30pm 27.6 SSW 9 12 1008.6 - 0.0 - Cloudy 10 - - - -
15/10:00pm 26.6 SSW 11 17 1009.4 - 0.0 - Partly cloudy 10 - - - -
15/09:30pm 27.1 SSW 11 16 1009.4 - 0.0 - - 10 - - - -
15/09:00pm 28.9 S 10 16 1008.6 - 0.0 - Partly cloudy 10 - - - -
15/08:30pm 30.6 SW 5 8 1007.9 - 0.0 - Partly cloudy 10 - - - -
15/08:00pm 30.7 W 5 8 1007.2 - 0.0 - - 10 - - - -
15/07:30pm 30.6 WNW 8 11 1006.2 - 0.0 - Mostly clear 10 - - - -
15/07:00pm 30.6 NW 5 8 1006.2 - 0.0 - - 10 - - - -
15/06:30pm 31.3 NW 7 11 1005.5 - 0.0 - - 10 - - - -
15/06:00pm 31.4 NW 8 13 1004.6 - 0.0 - - 10 - - - -
15/05:30pm 32.0 NNW 9 12 1004.0 - 0.0 - - 10 - - - -
15/05:00pm 33.2 NNW 8 12 1004.0 - 0.0 - - 10 - - - -
15/04:30pm 33.2 NNW 8 12 1004.3 - 0.0 - Mostly cloudy 10 - - - -
15/04:00pm 33.1 NW 7 11 1004.4 - 0.0 - - 10 - - - -
15/03:30pm 33.2 WNW 9 13 1004.7 - 0.0 - - 10 - - - -
15/03:00pm 33.4 NW 8 13 1004.8 - 0.0 - - 10 - - - -
15/02:30pm 33.4 NNW 8 13 1005.6 - 0.0 - - 10 - - - -
15/02:00pm 33.9 NNW 8 15 1006.1 - 0.0 - - 10 - - - -
15/01:30pm 32.8 NW 7 11 1006.8 - 0.0 - - 10 - - - -
15/01:00pm 32.4 NNW 9 13 1007.1 - 0.0 - - 10 - - - -
15/12:30pm 32.2 NNW 8 12 1007.6 - 0.0 - - 10 - - - -
15/12:00pm 33.5 NNW 7 11 1008.0 - 0.0 - - 10 - - - -
15/11:30am 32.8 N 8 10 1008.4 - 0.0 - - 10 - - - -
15/11:00am 32.0 NW 5 8 1008.7 - 0.0 - Partly cloudy 10 - - - -
15/10:30am 31.7 NNW 6 9 1008.7 - 0.0 - - 10 - - - -
15/10:00am 31.3 NNW 5 9 1008.6 - 0.0 - - 10 - - - -
15/09:30am 31.0 NNW 3 6 1008.7 - 0.0 - - 10 - - - -
15/09:00am 30.7 NE 5 7 1008.7 - 0.0 - Partly cloudy 10 - - - -
15/08:30am 29.6 NNE 2 3 1008.6 - 0.0 - Partly cloudy 10 - - - -
15/08:00am 28.8 CALM 0 0 1008.2 - 0.0 - - 10 - - - -
15/07:30am 27.7 CALM 0 0 1007.7 - 0.0 - Mostly clear 10 - - - -
15/07:00am 27.3 E 2 4 1007.2 - 0.0 - Cloudy 10 - - - -
15/06:30am 27.0 CALM 0 0 1006.7 - 0.0 - Partly cloudy 10 - - - -
15/06:00am 27.4 CALM 0 0 1006.4 - 0.0 - - 10 - - - -
15/05:30am 27.1 E 3 4 1006.0 - 0.0 - - 10 - - - -
15/05:00am 27.2 ENE 3 5 1005.8 - 0.0 - - 10 - - - -
15/04:30am 28.0 S 2 4 1005.4 - 0.0 - Cloudy 10 - - - -
15/04:00am 27.8 SSW 3 5 1005.4 - 0.0 - - 10 - - - -
15/03:30am 27.2 CALM 0 0 1005.3 - 0.0 - - 10 - - - -
15/03:00am 28.0 SW 3 4 1005.3 - 0.0 - - 10 - - - -
15/02:30am 27.9 SW 2 3 1005.6 - 0.0 - - 10 - - - -
15/02:00am 28.0 SSW 4 5 1005.7 - 0.0 - - 10 - - - -
15/01:30am 28.0 SW 5 6 1005.9 - 0.0 - Cloudy 10 - - - -
15/01:00am 27.9 SW 4 5 1006.3 - 0.0 - - 10 - - - -
15/12:30am 27.9 SW 4 5 1006.6 - 0.0 - - 10 - - - -

Other Formats:

Comma delimited format used in spreadsheet applications
http://www.bom.gov.au/fwo/IDD60701/IDD60701.95101.axf

JavaScript Object Notation format (JSON) in row-major order
http://www.bom.gov.au/fwo/IDD60701/IDD60701.95101.json